createdAt,value
2022-12-31T00:00:21.658Z,88.87
2022-12-31T00:03:45.630Z,89.00
2022-12-31T00:06:48.681Z,89.24
2022-12-31T00:09:51.524Z,89.42
2022-12-31T00:12:54.477Z,89.49
2022-12-31T00:16:12.048Z,89.69
2022-12-31T00:19:15.431Z,89.73
2022-12-31T00:22:18.310Z,89.67
2022-12-31T00:25:21.232Z,89.78
2022-12-31T00:28:24.088Z,89.84
2022-12-31T00:31:32.571Z,89.87
2022-12-31T00:34:35.683Z,89.72
2022-12-31T00:37:38.574Z,89.64
2022-12-31T00:40:41.459Z,89.65
2022-12-31T00:43:44.969Z,89.86
2022-12-31T00:46:48.522Z,90.29
2022-12-31T00:49:51.227Z,90.51
2022-12-31T00:52:54.021Z,90.45
2022-12-31T00:56:05.463Z,90.34
2022-12-31T00:59:08.533Z,90.38
2022-12-31T01:02:11.613Z,90.36
2022-12-31T01:05:14.697Z,90.27
2022-12-31T01:08:18.100Z,90.41
2022-12-31T01:11:24.284Z,90.61
2022-12-31T01:14:27.261Z,90.63
2022-12-31T01:17:30.078Z,90.66
2022-12-31T01:20:38.245Z,90.70
2022-12-31T01:23:42.153Z,90.62
2022-12-31T01:26:45.371Z,90.19
2022-12-31T01:29:48.567Z,90.13
2022-12-31T01:32:51.417Z,90.34
2022-12-31T01:35:54.238Z,90.41
2022-12-31T01:39:00.324Z,90.44
2022-12-31T01:42:03.192Z,90.49
2022-12-31T01:45:12.035Z,90.36
2022-12-31T01:48:19.685Z,89.98
2022-12-31T01:51:23.749Z,89.94
2022-12-31T01:54:29.165Z,89.92
2022-12-31T01:57:32.468Z,89.70
2022-12-31T02:00:35.664Z,89.57
2022-12-31T02:03:39.019Z,89.45
2022-12-31T02:06:47.288Z,89.23
2022-12-31T02:09:50.836Z,89.12
2022-12-31T02:12:53.571Z,89.00
2022-12-31T02:16:17.465Z,89.04
2022-12-31T02:19:25.957Z,89.12
2022-12-31T02:22:47.869Z,89.23
2022-12-31T02:26:13.240Z,88.97
2022-12-31T02:29:34.819Z,88.76
2022-12-31T02:32:48.386Z,88.90
2022-12-31T02:35:59.679Z,88.56
2022-12-31T02:39:04.314Z,88.44
2022-12-31T02:42:07.536Z,88.52
2022-12-31T02:45:18.279Z,88.44
2022-12-31T02:48:35.421Z,88.40
2022-12-31T02:51:45.783Z,88.52
2022-12-31T02:55:14.097Z,87.95
2022-12-31T02:59:05.694Z,88.10
2022-12-31T03:02:13.956Z,88.47
2022-12-31T03:05:20.680Z,88.44
2022-12-31T03:08:25.697Z,88.49
2022-12-31T03:11:47.223Z,88.59
2022-12-31T03:14:50.962Z,88.66
2022-12-31T03:18:04.253Z,88.47
2022-12-31T03:21:43.509Z,88.19
2022-12-31T03:25:04.877Z,88.33
2022-12-31T03:28:13.133Z,88.75
2022-12-31T03:31:16.491Z,88.41
2022-12-31T03:34:19.779Z,88.74
2022-12-31T03:37:22.355Z,88.89
2022-12-31T03:40:28.481Z,88.31
2022-12-31T03:43:31.033Z,88.46
2022-12-31T03:46:34.196Z,88.72
2022-12-31T03:49:37.076Z,88.75
2022-12-31T03:52:40.794Z,88.86
2022-12-31T03:55:43.391Z,88.81
2022-12-31T03:58:46.469Z,88.64
2022-12-31T04:01:49.023Z,88.81
2022-12-31T04:04:52.386Z,88.99
2022-12-31T04:07:55.851Z,89.13
2022-12-31T04:10:58.959Z,88.96
2022-12-31T04:14:01.470Z,88.72
2022-12-31T04:17:04.623Z,88.54
2022-12-31T04:20:07.907Z,88.53
2022-12-31T04:23:11.085Z,88.63
2022-12-31T04:26:13.637Z,88.21
2022-12-31T04:29:16.925Z,88.31
2022-12-31T04:32:19.644Z,88.51
2022-12-31T04:35:22.766Z,88.42
2022-12-31T04:38:25.295Z,88.65
2022-12-31T04:41:28.454Z,88.81
2022-12-31T04:44:31.725Z,88.73
2022-12-31T04:47:34.804Z,88.79
2022-12-31T04:50:37.395Z,88.79
2022-12-31T04:53:41.174Z,88.72
2022-12-31T04:56:44.176Z,88.86
2022-12-31T04:59:47.408Z,88.89
2022-12-31T05:02:50.603Z,88.91
2022-12-31T05:05:54.863Z,88.95
2022-12-31T05:08:57.461Z,88.99
2022-12-31T05:12:00.749Z,89.18
2022-12-31T05:15:03.481Z,88.80
2022-12-31T05:18:06.635Z,88.20
2022-12-31T05:21:15.417Z,88.18
2022-12-31T05:24:18.478Z,88.54
2022-12-31T05:27:21.256Z,88.63
2022-12-31T05:30:24.495Z,88.69
2022-12-31T05:33:26.908Z,88.83
2022-12-31T05:36:30.009Z,88.97
2022-12-31T05:39:32.513Z,88.99
2022-12-31T05:42:35.619Z,89.20
2022-12-31T05:45:38.393Z,89.34
2022-12-31T05:48:41.360Z,89.43
2022-12-31T05:51:44.055Z,89.48
2022-12-31T05:54:47.191Z,89.46
2022-12-31T05:57:49.724Z,89.40
2022-12-31T06:00:53.196Z,89.18
2022-12-31T06:03:56.097Z,89.17
2022-12-31T06:06:58.904Z,89.51
2022-12-31T06:10:01.969Z,89.75
2022-12-31T06:13:05.262Z,89.79
2022-12-31T06:16:09.692Z,89.97
2022-12-31T06:19:12.596Z,90.13
2022-12-31T06:22:16.180Z,90.07
2022-12-31T06:25:19.364Z,89.98
2022-12-31T06:28:22.452Z,90.05
2022-12-31T06:31:25.274Z,90.16
2022-12-31T06:34:28.147Z,90.18
2022-12-31T06:37:30.936Z,90.28
2022-12-31T06:40:37.966Z,90.34
2022-12-31T06:43:42.802Z,90.28
2022-12-31T06:46:45.819Z,90.33
2022-12-31T06:49:48.734Z,90.18
2022-12-31T06:52:51.573Z,90.21
2022-12-31T06:55:55.120Z,90.03
2022-12-31T06:58:58.549Z,89.99
2022-12-31T07:02:14.602Z,89.76
2022-12-31T07:05:39.515Z,89.57
2022-12-31T07:08:42.275Z,89.44
2022-12-31T07:11:52.603Z,89.58
2022-12-31T07:15:06.330Z,89.16
2022-12-31T07:18:11.796Z,89.06
2022-12-31T07:21:18.347Z,88.73
2022-12-31T07:24:21.707Z,88.75
2022-12-31T07:27:45.701Z,88.64
2022-12-31T07:31:03.767Z,88.73
2022-12-31T07:34:25.101Z,88.62
2022-12-31T07:37:39.964Z,88.37
2022-12-31T07:41:09.423Z,88.25
2022-12-31T07:44:35.324Z,88.32
2022-12-31T07:47:38.520Z,87.82
2022-12-31T07:50:41.594Z,86.81
2022-12-31T07:53:44.449Z,86.38
2022-12-31T07:56:48.399Z,86.75
2022-12-31T08:00:08.245Z,86.44
2022-12-31T08:03:21.016Z,87.01
2022-12-31T08:06:30.363Z,86.28
2022-12-31T08:09:41.920Z,85.83
2022-12-31T08:12:46.857Z,84.96
2022-12-31T08:15:49.602Z,85.13
2022-12-31T08:18:53.202Z,84.94
2022-12-31T08:22:04.844Z,84.28
2022-12-31T08:25:19.337Z,84.11
2022-12-31T08:28:39.550Z,83.78
2022-12-31T08:32:07.764Z,84.14
2022-12-31T08:35:40.809Z,83.94
2022-12-31T08:38:54.971Z,82.86
2022-12-31T08:41:58.276Z,82.81
2022-12-31T08:45:37.775Z,82.57
2022-12-31T08:48:43.863Z,81.04
2022-12-31T08:51:47.281Z,80.78
2022-12-31T08:54:50.177Z,81.11
2022-12-31T08:58:11.777Z,81.22
2022-12-31T09:01:19.124Z,81.04
2022-12-31T09:04:40.750Z,79.10
2022-12-31T09:08:15.319Z,77.27
2022-12-31T09:11:28.201Z,77.30
2022-12-31T09:14:47.448Z,77.38
2022-12-31T09:17:52.270Z,76.85
2022-12-31T09:20:55.064Z,76.31
2022-12-31T09:23:58.463Z,76.49
2022-12-31T09:27:35.169Z,77.77
2022-12-31T09:30:47.269Z,78.77
2022-12-31T09:34:02.132Z,79.06
2022-12-31T09:37:44.334Z,78.69
2022-12-31T09:41:08.841Z,79.02
2022-12-31T09:44:17.933Z,77.87
2022-12-31T09:47:23.803Z,78.82
2022-12-31T09:50:32.862Z,78.83
2022-12-31T09:54:05.233Z,78.88
2022-12-31T09:57:37.176Z,78.63
2022-12-31T10:00:59.938Z,78.45
2022-12-31T10:04:14.070Z,78.23
2022-12-31T10:07:34.942Z,78.05
2022-12-31T10:10:57.903Z,77.20
2022-12-31T10:14:26.975Z,76.05
2022-12-31T10:17:38.208Z,76.34
2022-12-31T10:21:23.406Z,76.82
2022-12-31T10:24:32.789Z,77.23
2022-12-31T10:27:53.636Z,76.80
2022-12-31T10:31:17.236Z,76.95
2022-12-31T10:35:13.960Z,77.39
2022-12-31T10:38:50.915Z,77.18
2022-12-31T10:41:59.335Z,77.03
2022-12-31T10:45:14.610Z,76.27
2022-12-31T10:48:33.785Z,75.44
2022-12-31T10:51:50.909Z,75.88
2022-12-31T10:55:10.416Z,76.93
2022-12-31T10:58:39.927Z,76.99
2022-12-31T11:01:54.372Z,77.93
2022-12-31T11:05:03.289Z,78.31
2022-12-31T11:08:33.148Z,77.62
2022-12-31T11:11:58.321Z,77.10
2022-12-31T11:15:23.078Z,77.46
2022-12-31T11:18:26.092Z,78.08
2022-12-31T11:21:39.390Z,78.52
2022-12-31T11:25:19.156Z,78.99
2022-12-31T11:29:03.838Z,79.21
2022-12-31T11:32:26.947Z,79.66
2022-12-31T11:35:41.615Z,79.84
2022-12-31T11:39:00.368Z,79.85
2022-12-31T11:42:21.362Z,80.00
2022-12-31T11:45:50.870Z,79.92
2022-12-31T11:49:08.600Z,79.60
2022-12-31T11:52:36.197Z,79.23
2022-12-31T11:56:06.365Z,78.32
2022-12-31T11:59:18.866Z,79.11
2022-12-31T12:02:32.319Z,78.06
2022-12-31T12:05:36.502Z,77.27
2022-12-31T12:08:40.630Z,76.72
2022-12-31T12:11:43.953Z,77.74
2022-12-31T12:14:52.654Z,78.53
2022-12-31T12:18:08.141Z,78.88
2022-12-31T12:21:11.959Z,78.66
2022-12-31T12:24:29.116Z,78.89
2022-12-31T12:27:34.634Z,78.71
2022-12-31T12:30:41.357Z,77.72
2022-12-31T12:33:46.370Z,77.30
2022-12-31T12:36:50.103Z,77.16
2022-12-31T12:40:02.235Z,74.58
2022-12-31T12:43:06.995Z,74.97
2022-12-31T12:46:30.436Z,74.41
2022-12-31T12:49:46.014Z,74.14
2022-12-31T12:53:13.035Z,74.19
2022-12-31T12:56:51.589Z,74.08
2022-12-31T13:00:03.578Z,74.42
2022-12-31T13:04:07.284Z,74.39
2022-12-31T13:07:27.115Z,74.19
2022-12-31T13:10:40.789Z,74.04
2022-12-31T13:13:45.841Z,75.00
2022-12-31T13:17:07.189Z,75.36
2022-12-31T13:20:23.471Z,75.79
2022-12-31T13:23:33.610Z,76.02
2022-12-31T13:26:38.811Z,76.35
2022-12-31T13:29:44.263Z,76.35
2022-12-31T13:32:51.713Z,76.51
2022-12-31T13:36:00.525Z,76.70
2022-12-31T13:39:12.307Z,77.10
2022-12-31T13:42:22.219Z,77.31
2022-12-31T13:45:33.214Z,77.52
2022-12-31T13:48:47.244Z,77.65
2022-12-31T13:51:53.523Z,77.79
2022-12-31T13:55:21.469Z,77.96
2022-12-31T13:58:46.279Z,78.06
2022-12-31T14:01:56.318Z,78.17
2022-12-31T14:05:17.748Z,78.29
2022-12-31T14:08:20.741Z,78.27
2022-12-31T14:11:42.444Z,77.99
2022-12-31T14:15:07.097Z,77.97
2022-12-31T14:18:18.651Z,78.26
2022-12-31T14:21:34.118Z,78.40
2022-12-31T14:24:43.245Z,78.65
2022-12-31T14:27:48.286Z,78.98
2022-12-31T14:30:58.950Z,79.17
2022-12-31T14:34:33.729Z,79.06
2022-12-31T14:38:01.686Z,79.24
2022-12-31T14:41:26.493Z,79.43
2022-12-31T14:44:44.102Z,79.51
2022-12-31T14:47:52.952Z,79.63
2022-12-31T14:50:59.005Z,79.99
2022-12-31T14:54:02.177Z,80.39
2022-12-31T14:57:17.003Z,80.55
2022-12-31T15:00:39.931Z,80.19
2022-12-31T15:03:46.100Z,80.88
2022-12-31T15:06:58.468Z,81.43
2022-12-31T15:10:07.435Z,81.32
2022-12-31T15:13:28.020Z,81.34
2022-12-31T15:16:52.604Z,81.40
2022-12-31T15:20:03.651Z,81.91
2022-12-31T15:23:34.466Z,82.14
2022-12-31T15:26:37.415Z,82.53
2022-12-31T15:29:45.485Z,83.22
2022-12-31T15:32:48.453Z,83.71
2022-12-31T15:35:54.126Z,83.88
2022-12-31T15:39:26.338Z,84.22
2022-12-31T15:42:49.175Z,84.38
2022-12-31T15:45:56.545Z,84.61
2022-12-31T15:49:20.291Z,85.06
2022-12-31T15:52:30.289Z,85.49
2022-12-31T15:55:38.775Z,85.51
2022-12-31T15:58:44.681Z,85.65
2022-12-31T16:01:48.668Z,85.93
2022-12-31T16:04:55.609Z,86.15
2022-12-31T16:07:59.600Z,86.26
2022-12-31T16:11:08.397Z,86.77
2022-12-31T16:14:38.584Z,86.39
2022-12-31T16:17:41.892Z,86.39
2022-12-31T16:20:48.511Z,87.18
2022-12-31T16:23:53.765Z,87.13
2022-12-31T16:26:59.868Z,86.48
2022-12-31T16:30:18.265Z,86.29
2022-12-31T16:33:21.090Z,86.42
2022-12-31T16:36:24.373Z,86.22
2022-12-31T16:39:39.382Z,86.65
2022-12-31T16:42:44.571Z,86.34
2022-12-31T16:45:47.358Z,86.82
2022-12-31T16:49:12.628Z,86.46
2022-12-31T16:52:41.643Z,86.14
2022-12-31T16:55:54.048Z,85.95
2022-12-31T16:59:03.434Z,85.72
2022-12-31T17:02:32.797Z,86.34
2022-12-31T17:06:14.849Z,86.98
2022-12-31T17:09:21.201Z,87.53
2022-12-31T17:12:24.973Z,87.80
2022-12-31T17:15:38.715Z,87.94
2022-12-31T17:18:44.453Z,87.33
2022-12-31T17:21:48.736Z,87.52
2022-12-31T17:24:52.325Z,88.54
2022-12-31T17:28:08.060Z,88.95
2022-12-31T17:31:40.976Z,89.12
2022-12-31T17:34:51.310Z,88.79
2022-12-31T17:37:53.841Z,88.14
2022-12-31T17:41:06.286Z,88.29
2022-12-31T17:44:22.591Z,88.40
2022-12-31T17:47:34.778Z,88.64
2022-12-31T17:50:50.225Z,88.42
2022-12-31T17:53:53.490Z,88.42
2022-12-31T17:56:57.606Z,88.67
2022-12-31T18:00:00.467Z,89.09
2022-12-31T18:03:02.938Z,89.20
2022-12-31T18:06:09.177Z,88.81
2022-12-31T18:09:16.622Z,89.04
2022-12-31T18:12:20.197Z,89.10
2022-12-31T18:15:24.835Z,89.34
2022-12-31T18:18:30.654Z,89.36
2022-12-31T18:21:34.761Z,89.72
2022-12-31T18:24:37.909Z,89.87
2022-12-31T18:27:42.064Z,89.68
2022-12-31T18:30:48.400Z,89.82
2022-12-31T18:33:52.597Z,89.96
2022-12-31T18:36:55.878Z,90.33
2022-12-31T18:39:58.502Z,90.51
2022-12-31T18:43:05.112Z,90.36
2022-12-31T18:46:15.278Z,90.53
2022-12-31T18:49:18.761Z,90.52
2022-12-31T18:52:23.371Z,90.47
2022-12-31T18:55:42.929Z,90.38
2022-12-31T18:58:46.627Z,90.27
2022-12-31T19:01:49.831Z,90.41
2022-12-31T19:04:52.574Z,90.39
2022-12-31T19:07:56.467Z,90.72
2022-12-31T19:10:59.069Z,90.73
2022-12-31T19:14:03.012Z,90.70
2022-12-31T19:20:07.577Z,91.03
2022-12-31T19:23:19.215Z,90.70
2022-12-31T19:26:25.265Z,90.69
2022-12-31T19:29:28.974Z,90.59
2022-12-31T19:32:32.084Z,90.73
2022-12-31T19:35:34.651Z,90.62
2022-12-31T19:38:37.737Z,90.78
2022-12-31T19:41:43.064Z,90.66
2022-12-31T19:44:46.157Z,90.54
2022-12-31T19:47:49.277Z,90.64
2022-12-31T19:50:54.858Z,90.74
2022-12-31T19:53:57.415Z,90.79
2022-12-31T19:57:00.507Z,90.66
2022-12-31T20:00:03.643Z,90.49
2022-12-31T20:03:15.517Z,90.57
2022-12-31T20:06:19.761Z,90.60
2022-12-31T20:09:22.806Z,90.80
2022-12-31T20:12:25.733Z,91.08
2022-12-31T20:15:28.641Z,91.18
2022-12-31T20:18:31.529Z,91.42
2022-12-31T20:21:34.451Z,91.59
2022-12-31T20:24:37.251Z,91.62
2022-12-31T20:27:40.150Z,91.49
2022-12-31T20:30:42.994Z,91.16
2022-12-31T20:33:45.949Z,91.13
2022-12-31T20:36:48.855Z,91.14
2022-12-31T20:39:51.880Z,91.29
2022-12-31T20:42:54.765Z,91.38
2022-12-31T20:45:57.823Z,91.29
2022-12-31T20:49:03.241Z,91.35
2022-12-31T20:52:06.419Z,91.41
2022-12-31T20:55:11.216Z,91.48
2022-12-31T20:58:14.093Z,91.36
2022-12-31T21:01:17.443Z,91.20
2022-12-31T21:04:20.488Z,91.29
2022-12-31T21:07:23.919Z,91.45
2022-12-31T21:10:26.745Z,91.36
2022-12-31T21:13:31.158Z,91.33
2022-12-31T21:16:34.435Z,91.22
2022-12-31T21:19:37.200Z,91.30
2022-12-31T21:22:40.151Z,91.28
2022-12-31T21:25:43.996Z,91.53
2022-12-31T21:28:47.027Z,91.49
2022-12-31T21:31:50.057Z,91.46
2022-12-31T21:35:14.959Z,91.41
2022-12-31T21:38:15.819Z,91.49
2022-12-31T21:41:37.314Z,91.65
2022-12-31T21:44:40.195Z,91.61
2022-12-31T21:48:01.585Z,91.55
2022-12-31T21:51:08.303Z,91.78
2022-12-31T21:54:31.050Z,91.72
2022-12-31T21:57:51.888Z,91.93
2022-12-31T22:01:17.007Z,92.13
2022-12-31T22:04:59.938Z,92.41
2022-12-31T22:07:43.123Z,92.49
2022-12-31T22:10:52.111Z,92.57
2022-12-31T22:13:56.248Z,92.68
2022-12-31T22:16:58.919Z,92.71
2022-12-31T22:20:26.355Z,92.76
2022-12-31T22:23:24.484Z,92.80
2022-12-31T22:26:29.024Z,92.76
2022-12-31T22:29:31.998Z,92.72
2022-12-31T22:32:35.076Z,92.49
2022-12-31T22:35:37.884Z,92.63
2022-12-31T22:38:40.820Z,92.90
2022-12-31T22:41:43.720Z,92.77
2022-12-31T22:44:46.676Z,92.95
2022-12-31T22:47:49.449Z,92.99
2022-12-31T22:50:58.452Z,93.01
2022-12-31T22:54:01.372Z,92.94
2022-12-31T22:57:04.201Z,92.99
2022-12-31T23:00:12.813Z,93.01
2022-12-31T23:03:16.170Z,92.91
2022-12-31T23:06:20.639Z,92.94
2022-12-31T23:09:42.336Z,92.85
2022-12-31T23:12:45.208Z,92.78
2022-12-31T23:16:06.821Z,92.99
2022-12-31T23:19:28.611Z,93.07
2022-12-31T23:22:50.035Z,92.59
2022-12-31T23:25:52.989Z,92.21
2022-12-31T23:28:55.815Z,92.36
2022-12-31T23:31:58.835Z,92.59
2022-12-31T23:35:09.257Z,92.49
2022-12-31T23:38:13.750Z,92.46
2022-12-31T23:41:19.468Z,92.69
2022-12-31T23:44:22.417Z,92.85
2022-12-31T23:47:25.322Z,93.08
2022-12-31T23:50:28.352Z,92.93
2022-12-31T23:53:31.565Z,92.95
2022-12-31T23:56:34.804Z,93.02
2022-12-31T23:59:37.677Z,93.12
